Time;durP1;ratioP1;P1;durP2;ratioP2;P2;SDS_P1;SDS_P2;PMS_P1;PMS_P2;Temp;Humidity;BMP_temperature;BMP_pressure;BME280_temperature;BME280_humidity;BME280_pressure;Samples;Min_cycle;Max_cycle;Signal;HPM_P1;HPM_P2
2021/01/25 00:00:43;;;;;;;4.75;2.20;;;12.30;67.50;;;;;;4992889;28;20041;-69
2021/01/25 00:03:09;;;;;;;7.57;2.08;;;12.10;67.60;;;;;;4992149;28;20444;-71
2021/01/25 00:05:37;;;;;;;4.00;2.17;;;12.00;68.00;;;;;;4991832;28;20041;-69
2021/01/25 00:08:04;;;;;;;4.80;2.28;;;12.00;68.00;;;;;;4992709;28;21876;-69
2021/01/25 00:10:31;;;;;;;6.72;1.85;;;12.00;67.50;;;;;;4994839;28;20408;-70
2021/01/25 00:12:57;;;;;;;5.57;2.28;;;12.10;68.10;;;;;;4991206;28;20066;-70
2021/01/25 00:15:24;;;;;;;3.60;2.05;;;12.00;67.40;;;;;;4992432;28;20027;-69
2021/01/25 00:17:50;;;;;;;3.35;1.75;;;12.10;67.80;;;;;;4994968;28;20026;-70
2021/01/25 00:20:17;;;;;;;7.30;2.40;;;11.90;68.80;;;;;;4986410;28;20131;-71
2021/01/25 00:22:43;;;;;;;3.10;1.77;;;11.90;68.40;;;;;;4983789;28;20026;-70
2021/01/25 00:25:10;;;;;;;5.22;2.00;;;12.00;68.80;;;;;;4990904;28;20026;-72
2021/01/25 00:27:36;;;;;;;3.25;1.77;;;12.00;69.50;;;;;;4986575;28;20034;-70
2021/01/25 00:30:04;;;;;;;8.00;2.00;;;12.20;70.10;;;;;;4981311;28;20511;-71
2021/01/25 00:32:31;;;;;;;7.82;2.30;;;12.20;70.20;;;;;;4987390;28;20037;-70
2021/01/25 00:34:57;;;;;;;7.28;2.30;;;12.30;70.20;;;;;;4981240;28;20037;-70
2021/01/25 00:37:24;;;;;;;10.57;3.05;;;12.40;69.60;;;;;;4990177;28;20030;-70
2021/01/25 00:39:50;;;;;;;3.58;2.05;;;12.50;69.30;;;;;;4991637;28;20068;-71
2021/01/25 00:42:16;;;;;;;6.47;2.20;;;12.60;68.80;;;;;;4989553;28;20027;-71
2021/01/25 00:44:43;;;;;;;5.97;1.65;;;12.60;67.90;;;;;;4990121;28;20034;-70
2021/01/25 00:47:09;;;;;;;8.30;2.35;;;12.40;68.40;;;;;;4993701;28;20030;-71
2021/01/25 00:49:36;;;;;;;3.63;1.63;;;12.40;68.60;;;;;;4992965;28;20463;-71
2021/01/25 00:52:02;;;;;;;3.22;1.77;;;12.30;69.20;;;;;;5000788;28;20027;-70
2021/01/25 00:54:28;;;;;;;2.47;1.98;;;12.40;68.50;;;;;;4993697;28;20023;-70
2021/01/25 00:56:55;;;;;;;3.00;1.88;;;12.40;68.40;;;;;;4993371;28;20033;-71
2021/01/25 00:59:21;;;;;;;6.53;1.40;;;12.40;68.30;;;;;;4995028;28;20022;-70
2021/01/25 01:01:47;;;;;;;6.13;1.98;;;12.30;68.60;;;;;;4994350;28;20140;-71
2021/01/25 01:04:14;;;;;;;3.60;1.55;;;12.50;68.20;;;;;;4985312;28;20446;-71
2021/01/25 01:06:41;;;;;;;1.70;1.60;;;12.40;68.80;;;;;;4985668;28;20030;-70
2021/01/25 01:09:07;;;;;;;9.23;2.42;;;12.30;68.90;;;;;;4993649;28;20041;-70
2021/01/25 01:11:34;;;;;;;5.70;2.00;;;12.30;69.10;;;;;;4994032;28;20420;-71
2021/01/25 01:14:00;;;;;;;7.07;2.78;;;12.20;68.60;;;;;;4990780;28;20034;-70
2021/01/25 01:16:27;;;;;;;2.15;1.75;;;12.20;68.90;;;;;;4992918;28;20072;-70
2021/01/25 01:18:53;;;;;;;2.08;1.80;;;12.40;67.30;;;;;;4992230;28;20084;-70
2021/01/25 01:21:20;;;;;;;2.65;2.05;;;12.50;67.00;;;;;;4988382;28;20096;-70
2021/01/25 01:23:46;;;;;;;2.30;2.08;;;12.40;67.40;;;;;;4989551;28;20026;-71
2021/01/25 01:26:13;;;;;;;5.35;1.90;;;12.30;67.50;;;;;;4990534;28;20019;-72
2021/01/25 01:28:39;;;;;;;3.70;1.77;;;12.20;68.10;;;;;;4992043;28;20026;-71
2021/01/25 01:31:06;;;;;;;2.33;1.88;;;12.10;68.10;;;;;;4988342;28;20107;-71
2021/01/25 01:33:32;;;;;;;3.83;1.60;;;11.90;68.60;;;;;;4987753;28;20034;-71
2021/01/25 01:35:59;;;;;;;3.95;2.42;;;12.00;67.90;;;;;;4987078;28;20023;-71
2021/01/25 01:38:25;;;;;;;4.40;2.40;;;12.10;68.40;;;;;;4987145;28;20467;-70
2021/01/25 01:40:52;;;;;;;5.28;2.90;;;12.00;67.80;;;;;;4988173;28;20163;-71
2021/01/25 01:43:18;;;;;;;6.32;2.13;;;11.90;68.30;;;;;;4990227;28;20342;-70
2021/01/25 01:45:45;;;;;;;3.90;1.80;;;12.10;69.70;;;;;;4992889;28;20038;-71
2021/01/25 01:48:11;;;;;;;3.70;2.17;;;12.00;68.00;;;;;;4991585;28;20101;-71
2021/01/25 01:50:38;;;;;;;6.03;2.33;;;11.90;69.20;;;;;;4989903;28;20120;-71
2021/01/25 01:53:04;;;;;;;4.43;2.10;;;11.70;69.20;;;;;;4986703;28;20037;-71
2021/01/25 01:55:31;;;;;;;2.65;2.25;;;11.70;70.70;;;;;;4985436;28;20041;-70
2021/01/25 01:57:57;;;;;;;3.33;1.85;;;11.70;71.50;;;;;;4984347;28;20042;-70
2021/01/25 02:00:24;;;;;;;7.22;2.83;;;11.50;72.00;;;;;;4988052;28;20081;-71
2021/01/25 02:02:50;;;;;;;8.00;2.97;;;11.50;72.40;;;;;;4993324;28;20062;-71
2021/01/25 02:05:17;;;;;;;6.00;2.20;;;11.40;71.80;;;;;;4991130;28;20462;-71
2021/01/25 02:07:50;;;;;;;13.23;3.80;;;11.30;72.50;;;;;;4995029;28;20130;-72
2021/01/25 02:10:19;;;;;;;6.00;2.60;;;11.40;71.50;;;;;;4989880;28;20101;-71
2021/01/25 02:12:51;;;;;;;13.00;3.53;;;11.40;72.40;;;;;;4979218;28;20067;-71
2021/01/25 02:15:19;;;;;;;10.95;3.45;;;11.40;71.40;;;;;;4994192;28;20026;-69
2021/01/25 02:17:53;;;;;;;11.10;3.83;;;11.40;71.60;;;;;;4986227;28;20472;-71
2021/01/25 02:20:25;;;;;;;18.65;3.80;;;11.50;71.20;;;;;;4994043;28;20114;-70
2021/01/25 02:23:19;;;;;;;13.98;3.40;;;11.70;71.90;;;;;;4994240;28;20037;-70
2021/01/25 02:26:13;;;;;;;19.75;5.55;;;11.70;71.30;;;;;;4993977;28;20026;-70
2021/01/25 02:28:40;;;;;;;15.77;4.57;;;11.80;70.70;;;;;;4992837;28;20022;-70
2021/01/25 02:31:09;;;;;;;23.90;5.78;;;11.90;70.60;;;;;;4984097;28;20049;-70
2021/01/25 02:33:49;;;;;;;28.27;5.38;;;11.90;70.90;;;;;;4985002;28;20082;-70
2021/01/25 02:36:16;;;;;;;33.78;5.45;;;11.90;69.70;;;;;;4987197;28;20030;-71
2021/01/25 02:38:46;;;;;;;34.85;6.25;;;11.90;70.60;;;;;;4992454;28;20026;-70
2021/01/25 02:41:15;;;;;;;34.67;6.85;;;11.80;70.20;;;;;;4987914;28;20527;-70
2021/01/25 02:43:43;;;;;;;27.52;5.32;;;11.90;70.60;;;;;;4990382;28;20030;-71
2021/01/25 02:46:10;;;;;;;24.70;5.28;;;11.70;71.00;;;;;;4992753;28;20034;-70
2021/01/25 02:48:37;;;;;;;31.75;6.47;;;11.70;71.10;;;;;;4989771;28;20034;-70
2021/01/25 02:51:04;;;;;;;21.25;3.95;;;11.90;70.60;;;;;;4990608;28;20034;-70
2021/01/25 02:53:31;;;;;;;37.60;7.32;;;11.80;70.50;;;;;;4989374;28;20023;-70
2021/01/25 02:55:59;;;;;;;18.42;4.95;;;11.90;70.00;;;;;;4986236;28;20030;-71
2021/01/25 02:58:26;;;;;;;23.75;6.15;;;12.00;69.40;;;;;;4990720;28;20045;-70
2021/01/25 03:00:53;;;;;;;21.20;4.85;;;12.00;69.30;;;;;;4987512;28;20145;-70
2021/01/25 03:03:22;;;;;;;24.85;5.13;;;12.00;69.50;;;;;;4990785;28;20049;-70
2021/01/25 03:05:48;;;;;;;26.80;4.85;;;12.00;70.00;;;;;;4990264;28;20019;-70
2021/01/25 03:08:15;;;;;;;25.42;6.43;;;12.10;69.90;;;;;;4991207;28;20038;-70
2021/01/25 03:10:41;;;;;;;16.45;4.57;;;12.30;69.80;;;;;;4989388;28;20031;-71
2021/01/25 03:13:08;;;;;;;15.50;4.03;;;12.20;69.50;;;;;;4984215;28;20029;-70
2021/01/25 03:15:39;;;;;;;12.77;3.90;;;12.20;70.20;;;;;;4987958;28;20033;-69
2021/01/25 03:18:06;;;;;;;5.80;2.93;;;12.20;70.50;;;;;;4982014;28;20038;-71
2021/01/25 03:20:32;;;;;;;10.60;3.63;;;12.10;70.70;;;;;;4990951;28;20116;-71
2021/01/25 03:22:59;;;;;;;8.40;2.85;;;12.00;70.80;;;;;;4990065;28;20027;-71
2021/01/25 03:25:25;;;;;;;12.27;3.45;;;12.00;70.80;;;;;;4989754;28;20056;-70
2021/01/25 03:27:52;;;;;;;7.20;3.35;;;12.20;70.80;;;;;;4998144;28;20026;-71
2021/01/25 03:30:19;;;;;;;8.60;3.38;;;12.10;70.20;;;;;;4991106;28;20032;-70
2021/01/25 03:32:45;;;;;;;10.65;2.65;;;11.90;71.30;;;;;;4991756;28;20035;-71
2021/01/25 03:35:12;;;;;;;17.15;3.20;;;12.00;71.60;;;;;;4989145;28;20045;-70
2021/01/25 03:37:39;;;;;;;23.30;5.88;;;11.90;71.90;;;;;;4989929;28;20082;-70
2021/01/25 03:40:07;;;;;;;20.67;4.30;;;12.00;72.70;;;;;;4989527;28;20428;-70
2021/01/25 03:42:35;;;;;;;11.93;3.60;;;12.50;71.50;;;;;;4987161;28;20616;-71
2021/01/25 03:45:02;;;;;;;8.10;2.33;;;12.00;72.70;;;;;;4985614;28;20114;-71
2021/01/25 03:47:29;;;;;;;6.90;2.55;;;12.00;68.60;;;;;;4986339;28;20038;-71
2021/01/25 03:49:55;;;;;;;5.55;2.05;;;12.00;68.00;;;;;;4987444;28;20109;-73
2021/01/25 03:52:23;;;;;;;6.22;2.33;;;11.90;68.10;;;;;;4984255;28;20042;-73
2021/01/25 03:54:49;;;;;;;8.73;3.75;;;12.30;66.50;;;;;;4987862;28;20030;-73
2021/01/25 03:57:16;;;;;;;6.72;2.67;;;11.90;69.00;;;;;;4990938;28;20057;-72
2021/01/25 03:59:43;;;;;;;5.45;2.50;;;11.70;69.30;;;;;;4996440;28;20026;-75
2021/01/25 04:02:12;;;;;;;5.47;2.60;;;11.30;71.10;;;;;;4997477;28;20105;-75
2021/01/25 04:04:42;;;;;;;3.65;1.98;;;11.20;70.50;;;;;;4994396;28;20034;-73
2021/01/25 04:07:11;;;;;;;8.75;2.90;;;11.20;70.70;;;;;;4997841;28;20041;-75
2021/01/25 04:09:41;;;;;;;17.38;5.28;;;11.00;70.70;;;;;;4993695;28;20058;-73
2021/01/25 04:12:08;;;;;;;10.35;2.80;;;11.40;66.90;;;;;;4995079;28;20049;-74
2021/01/25 04:14:35;;;;;;;6.75;3.50;;;11.30;67.10;;;;;;4991784;28;20058;-77
2021/01/25 04:17:02;;;;;;;18.10;4.00;;;11.00;67.50;;;;;;4999388;28;20089;-74
2021/01/25 04:19:28;;;;;;;10.70;3.78;;;11.10;67.00;;;;;;4992580;28;20027;-77
2021/01/25 04:21:55;;;;;;;14.65;3.85;;;10.90;68.00;;;;;;4996210;28;20029;-74
2021/01/25 04:24:21;;;;;;;23.05;4.78;;;10.80;67.20;;;;;;4995657;28;20424;-74
2021/01/25 04:26:47;;;;;;;17.15;5.53;;;10.90;66.50;;;;;;4994401;28;20030;-75
2021/01/25 04:29:14;;;;;;;19.38;4.60;;;11.20;62.80;;;;;;4993113;28;20027;-71
2021/01/25 04:31:41;;;;;;;19.13;4.60;;;11.00;66.30;;;;;;4998023;28;21234;-74
2021/01/25 04:34:07;;;;;;;22.25;5.85;;;11.00;66.10;;;;;;4997853;28;20029;-71
2021/01/25 04:36:34;;;;;;;18.48;4.10;;;10.70;67.70;;;;;;4997515;28;20041;-71
2021/01/25 04:39:01;;;;;;;26.63;5.68;;;10.60;68.70;;;;;;4994354;28;20457;-76
2021/01/25 04:41:28;;;;;;;16.52;4.40;;;10.70;68.70;;;;;;4992649;28;20046;-73
2021/01/25 04:43:55;;;;;;;29.15;9.02;;;10.70;69.20;;;;;;4989535;28;20034;-71
2021/01/25 04:46:24;;;;;;;25.77;5.30;;;10.70;69.80;;;;;;4993531;28;20014;-78
2021/01/25 04:48:51;;;;;;;34.25;6.47;;;10.80;68.60;;;;;;4993130;28;20035;-75
2021/01/25 04:51:19;;;;;;;27.92;8.00;;;11.10;66.20;;;;;;4983149;28;20033;-72
2021/01/25 04:53:46;;;;;;;30.02;6.80;;;11.30;64.70;;;;;;4993076;28;20026;-69
2021/01/25 04:56:14;;;;;;;27.80;6.55;;;11.30;65.40;;;;;;4987737;28;20126;-71
2021/01/25 04:58:41;;;;;;;41.50;8.13;;;11.20;66.50;;;;;;4998378;28;20449;-71
2021/01/25 05:01:07;;;;;;;36.22;7.00;;;11.00;66.70;;;;;;4997404;28;20531;-69
2021/01/25 05:03:34;;;;;;;54.70;8.45;;;11.00;67.00;;;;;;4997002;28;20036;-70
2021/01/25 05:06:00;;;;;;;37.20;9.40;;;11.10;65.40;;;;;;4991911;28;20026;-70
2021/01/25 05:08:27;;;;;;;28.33;6.72;;;11.00;66.20;;;;;;4996200;28;20053;-70
2021/01/25 05:10:53;;;;;;;37.53;8.77;;;11.00;65.10;;;;;;4993981;28;20461;-71
2021/01/25 05:13:26;;;;;;;30.90;7.53;;;11.00;64.40;;;;;;4991563;28;20037;-71
2021/01/25 05:15:53;;;;;;;47.25;9.40;;;11.40;62.00;;;;;;4990837;28;20384;-70
2021/01/25 05:18:25;;;;;;;34.80;8.43;;;11.40;63.10;;;;;;4991124;28;20062;-70
2021/01/25 05:20:57;;;;;;;33.88;7.60;;;11.20;63.00;;;;;;4990285;28;20093;-70
2021/01/25 05:23:24;;;;;;;39.08;8.07;;;11.10;63.60;;;;;;4983867;28;21632;-69
2021/01/25 05:25:51;;;;;;;36.30;7.43;;;11.20;63.60;;;;;;4987122;28;20109;-72
2021/01/25 05:28:19;;;;;;;30.75;8.38;;;11.20;63.50;;;;;;4983492;28;20479;-70
2021/01/25 05:30:46;;;;;;;43.95;10.63;;;11.20;62.40;;;;;;4989987;28;20030;-69
2021/01/25 05:33:13;;;;;;;32.47;9.02;;;11.10;62.70;;;;;;4995706;28;20475;-70
2021/01/25 05:35:43;;;;;;;52.17;11.93;;;11.00;63.60;;;;;;4988602;28;20030;-71
2021/01/25 05:38:10;;;;;;;46.28;10.13;;;11.20;62.90;;;;;;4990191;28;20052;-72
2021/01/25 05:40:38;;;;;;;26.85;7.03;;;11.00;63.10;;;;;;4989779;28;21353;-70
2021/01/25 05:43:13;;;;;;;39.78;9.57;;;11.10;63.10;;;;;;4989322;28;20761;-71
2021/01/25 05:45:40;;;;;;;29.70;5.63;;;11.40;61.20;;;;;;4995113;28;20038;-70
2021/01/25 05:48:07;;;;;;;25.13;5.03;;;11.40;61.00;;;;;;4986990;28;20022;-70
2021/01/25 05:50:43;;;;;;;27.92;6.65;;;11.70;57.40;;;;;;4985704;28;20037;-69
2021/01/25 05:53:13;;;;;;;35.20;7.72;;;11.30;59.30;;;;;;4992461;28;20432;-71
2021/01/25 05:55:42;;;;;;;33.80;5.78;;;11.40;58.20;;;;;;4990018;28;20395;-71
2021/01/25 05:58:09;;;;;;;31.33;7.55;;;11.40;59.50;;;;;;4989622;28;20168;-70
2021/01/25 06:00:36;;;;;;;33.13;6.95;;;11.30;59.60;;;;;;4994960;28;20076;-70
2021/01/25 06:03:04;;;;;;;34.00;7.10;;;11.20;59.80;;;;;;4987361;28;20369;-69
2021/01/25 06:05:30;;;;;;;23.38;7.18;;;11.30;58.50;;;;;;4985039;28;20437;-70
2021/01/25 06:08:37;;;;;;;21.52;5.28;;;11.40;57.70;;;;;;4992256;28;20041;-70
2021/01/25 06:11:14;;;;;;;22.50;7.10;;;11.20;59.00;;;;;;4989012;28;20050;-70
2021/01/25 06:13:52;;;;;;;40.65;8.88;;;11.10;59.50;;;;;;4990341;28;20030;-70
2021/01/25 06:16:24;;;;;;;33.92;7.63;;;11.00;60.50;;;;;;4987642;28;20080;-70
2021/01/25 06:18:52;;;;;;;29.25;8.20;;;11.00;59.80;;;;;;4981729;28;20508;-70
2021/01/25 06:21:25;;;;;;;35.58;8.32;;;11.40;57.60;;;;;;4982173;28;20031;-69
2021/01/25 06:24:02;;;;;;;34.00;7.43;;;11.60;57.30;;;;;;4989166;28;20019;-70
2021/01/25 06:26:34;;;;;;;31.45;6.53;;;11.10;59.40;;;;;;4991474;28;20619;-70
2021/01/25 06:29:02;;;;;;;30.77;6.90;;;11.00;60.50;;;;;;4993184;28;20165;-70
2021/01/25 06:31:33;;;;;;;33.58;7.03;;;11.10;59.80;;;;;;4982248;28;20269;-69
2021/01/25 06:34:03;;;;;;;24.95;5.53;;;11.10;60.30;;;;;;4986300;28;20039;-69
2021/01/25 06:36:32;;;;;;;25.35;5.28;;;11.00;59.50;;;;;;4985953;28;20368;-70
2021/01/25 06:38:59;;;;;;;22.42;5.95;;;11.20;56.90;;;;;;4991189;28;20030;-71
2021/01/25 06:41:34;;;;;;;21.92;5.78;;;11.60;55.50;;;;;;4990535;28;20033;-70
2021/01/25 06:44:01;;;;;;;33.05;6.55;;;11.30;57.20;;;;;;4991846;28;20023;-70
2021/01/25 06:46:33;;;;;;;20.98;5.22;;;11.10;57.50;;;;;;4990581;28;20037;-69
2021/01/25 06:49:00;;;;;;;21.40;5.05;;;11.30;56.30;;;;;;4990568;28;20050;-69
2021/01/25 06:51:27;;;;;;;28.35;5.25;;;11.30;56.20;;;;;;4993384;28;20043;-69
2021/01/25 06:53:54;;;;;;;18.85;5.25;;;11.10;56.60;;;;;;4990888;28;20118;-69
2021/01/25 06:56:20;;;;;;;17.35;6.13;;;11.20;55.50;;;;;;4989767;28;20428;-69
2021/01/25 06:58:48;;;;;;;19.13;4.85;;;11.20;55.10;;;;;;4992107;28;20045;-69
2021/01/25 07:01:23;;;;;;;24.40;5.38;;;11.00;56.20;;;;;;4993696;28;20118;-69
2021/01/25 07:03:58;;;;;;;19.92;5.82;;;11.20;55.60;;;;;;4992929;28;20038;-69
2021/01/25 07:06:37;;;;;;;19.98;5.25;;;11.10;55.80;;;;;;4991913;28;20022;-69
2021/01/25 07:09:05;;;;;;;32.00;7.05;;;11.20;56.40;;;;;;4988798;28;20515;-69
2021/01/25 07:11:33;;;;;;;23.42;6.53;;;11.20;55.30;;;;;;4989044;28;20085;-69
2021/01/25 07:14:00;;;;;;;21.70;6.22;;;11.00;56.20;;;;;;4986844;28;20033;-70
2021/01/25 07:16:27;;;;;;;22.95;6.70;;;10.80;56.90;;;;;;4989824;28;20034;-70
2021/01/25 07:18:54;;;;;;;21.98;5.40;;;10.90;55.70;;;;;;4992334;28;20026;-70
2021/01/25 07:21:22;;;;;;;20.48;6.38;;;10.90;55.80;;;;;;4995688;28;20104;-70
2021/01/25 07:23:50;;;;;;;24.02;5.68;;;10.80;55.90;;;;;;4998285;28;20118;-69
2021/01/25 07:26:18;;;;;;;26.20;5.25;;;10.90;56.40;;;;;;4995439;28;20030;-70
2021/01/25 07:28:45;;;;;;;20.85;5.78;;;10.80;56.60;;;;;;4994108;28;20061;-70
2021/01/25 07:31:14;;;;;;;21.55;6.03;;;10.80;57.30;;;;;;4995033;28;20134;-68
2021/01/25 07:33:40;;;;;;;26.73;7.22;;;10.80;57.10;;;;;;4992194;28;20023;-70
2021/01/25 07:36:07;;;;;;;19.80;5.97;;;10.80;57.70;;;;;;4995188;28;20077;-69
2021/01/25 07:38:34;;;;;;;25.13;6.22;;;10.80;58.00;;;;;;4989353;28;20463;-69
2021/01/25 07:41:01;;;;;;;24.50;5.75;;;10.80;57.50;;;;;;4993641;28;20038;-70
2021/01/25 07:43:29;;;;;;;23.67;5.38;;;10.60;58.00;;;;;;4994586;28;20058;-69
2021/01/25 07:46:09;;;;;;;22.73;5.47;;;10.90;57.20;;;;;;4992448;28;20141;-69
2021/01/25 07:48:48;;;;;;;21.98;6.22;;;11.00;55.50;;;;;;4995491;28;20105;-70
2021/01/25 07:51:25;;;;;;;21.13;4.55;;;10.90;56.00;;;;;;4995219;28;20034;-71
2021/01/25 07:53:53;;;;;;;33.72;7.75;;;11.00;56.20;;;;;;4995149;28;20109;-69
2021/01/25 07:56:23;;;;;;;25.40;5.70;;;11.20;55.20;;;;;;4994381;28;20023;-70
2021/01/25 07:58:50;;;;;;;26.67;7.50;;;11.20;54.80;;;;;;4992131;28;20105;-70
2021/01/25 08:01:26;;;;;;;17.10;4.97;;;11.20;54.60;;;;;;4995882;28;20050;-70
2021/01/25 08:04:01;;;;;;;18.48;4.55;;;11.10;54.60;;;;;;4990650;28;20030;-69
2021/01/25 08:06:34;;;;;;;22.10;7.55;;;11.30;53.40;;;;;;4987621;28;20031;-69
2021/01/25 08:09:04;;;;;;;17.42;4.85;;;11.40;53.80;;;;;;4994776;28;20026;-69
2021/01/25 08:11:32;;;;;;;18.73;4.75;;;10.90;55.40;;;;;;4997038;28;20038;-69
2021/01/25 08:14:02;;;;;;;32.90;7.28;;;11.00;55.30;;;;;;4991951;28;20041;-70
2021/01/25 08:16:35;;;;;;;13.77;4.55;;;11.00;55.70;;;;;;4994161;28;20030;-69
2021/01/25 08:19:17;;;;;;;19.55;4.30;;;10.90;55.60;;;;;;4995359;28;20038;-71
2021/01/25 08:22:04;;;;;;;26.63;6.80;;;10.90;55.80;;;;;;4997043;28;20027;-71
2021/01/25 08:24:32;;;;;;;13.88;5.20;;;10.90;55.80;;;;;;4989863;28;20041;-69
2021/01/25 08:27:18;;;;;;;18.00;5.20;;;11.10;55.10;;;;;;4994076;28;20117;-69
2021/01/25 08:29:47;;;;;;;14.88;4.00;;;11.00;53.80;;;;;;4993753;28;20026;-69
2021/01/25 08:32:23;;;;;;;24.98;4.97;;;11.20;53.40;;;;;;4993286;28;20026;-69
2021/01/25 08:35:03;;;;;;;13.70;3.85;;;11.30;53.00;;;;;;4993998;28;20019;-69
2021/01/25 08:37:32;;;;;;;18.83;4.45;;;11.10;53.20;;;;;;4993236;28;20054;-70
2021/01/25 08:40:15;;;;;;;18.08;4.70;;;11.00;53.80;;;;;;4986325;28;21892;-70
2021/01/25 08:42:41;;;;;;;;;;;11.00;53.70;;;;;;4994275;28;20038;-69
2021/01/25 08:45:21;;;;;;;11.32;4.30;;;11.00;54.10;;;;;;4995145;28;20429;-69
2021/01/25 08:47:48;;;;;;;15.90;4.35;;;11.00;54.10;;;;;;4995801;28;20048;-69
2021/01/25 08:50:24;;;;;;;24.90;4.72;;;10.90;55.00;;;;;;4995289;28;20026;-70
2021/01/25 08:53:04;;;;;;;19.38;5.50;;;11.10;54.10;;;;;;4995497;28;20036;-70
2021/01/25 08:55:48;;;;;;;22.15;5.43;;;11.20;54.20;;;;;;4984285;28;20041;-70
2021/01/25 08:58:24;;;;;;;28.05;5.22;;;11.30;53.50;;;;;;4994563;28;20027;-70
2021/01/25 09:00:50;;;;;;;20.52;5.50;;;11.20;54.00;;;;;;4992701;28;20383;-70
2021/01/25 09:03:19;;;;;;;18.90;5.35;;;11.10;54.80;;;;;;4991664;28;20045;-70
2021/01/25 09:05:46;;;;;;;16.00;4.68;;;11.00;54.90;;;;;;4993069;28;20026;-70
2021/01/25 09:08:13;;;;;;;23.17;5.25;;;11.20;53.30;;;;;;4991478;28;20116;-70
2021/01/25 09:10:39;;;;;;;21.33;4.85;;;11.00;54.20;;;;;;4994042;28;20034;-70
2021/01/25 09:13:06;;;;;;;21.13;4.50;;;10.90;54.90;;;;;;4994492;28;20109;-70
2021/01/25 09:15:32;;;;;;;24.73;5.38;;;10.80;54.40;;;;;;4993937;28;20096;-69
2021/01/25 09:17:59;;;;;;;21.65;5.07;;;10.90;54.70;;;;;;4992658;28;20027;-72
2021/01/25 09:20:26;;;;;;;24.25;5.15;;;10.90;54.30;;;;;;4987885;28;20034;-70
2021/01/25 09:22:53;;;;;;;21.42;6.32;;;10.60;55.60;;;;;;4984400;28;20030;-70
2021/01/25 09:25:22;;;;;;;35.85;5.95;;;10.80;54.90;;;;;;4994940;28;20018;-72
2021/01/25 09:27:48;;;;;;;20.13;4.82;;;10.80;55.00;;;;;;4994234;28;20030;-70
2021/01/25 09:30:18;;;;;;;19.00;5.38;;;10.80;54.10;;;;;;4990706;28;20038;-70
2021/01/25 09:32:45;;;;;;;10.02;4.13;;;10.70;55.20;;;;;;4978054;28;20033;-70
2021/01/25 09:35:15;;;;;;;18.38;5.60;;;10.60;55.70;;;;;;4992348;28;20460;-69
2021/01/25 09:37:43;;;;;;;16.65;4.82;;;10.80;54.70;;;;;;4991970;28;20042;-70
2021/01/25 09:40:10;;;;;;;22.38;4.78;;;11.00;54.10;;;;;;4991835;28;20030;-70
2021/01/25 09:42:37;;;;;;;26.02;5.32;;;10.90;54.60;;;;;;4993056;28;20050;-71
2021/01/25 09:45:04;;;;;;;20.85;5.97;;;10.90;54.90;;;;;;4994341;28;20026;-71
2021/01/25 09:47:31;;;;;;;17.75;5.45;;;11.00;54.80;;;;;;4992381;28;20029;-71
2021/01/25 09:49:57;;;;;;;26.88;4.97;;;11.00;55.40;;;;;;4993687;28;20034;-69
2021/01/25 09:52:25;;;;;;;21.40;6.00;;;10.90;56.10;;;;;;4985014;28;20026;-70
2021/01/25 09:54:51;;;;;;;26.27;7.32;;;11.10;56.00;;;;;;4992748;28;20026;-70
2021/01/25 09:57:18;;;;;;;23.30;5.38;;;11.20;55.50;;;;;;4993178;28;20172;-70
2021/01/25 09:59:44;;;;;;;20.85;7.15;;;11.00;56.70;;;;;;4987717;28;20035;-68
2021/01/25 10:02:11;;;;;;;14.10;4.75;;;10.60;57.70;;;;;;4984845;28;20023;-70
2021/01/25 10:04:37;;;;;;;18.60;4.63;;;10.70;58.10;;;;;;4992182;28;20028;-69
2021/01/25 10:07:03;;;;;;;18.60;4.55;;;10.90;56.80;;;;;;4993967;28;20023;-70
2021/01/25 10:09:30;;;;;;;14.20;4.25;;;11.00;55.30;;;;;;4993922;28;20022;-69
2021/01/25 10:11:57;;;;;;;15.43;5.13;;;11.20;53.90;;;;;;4993179;28;20136;-69
2021/01/25 10:14:23;;;;;;;17.27;3.78;;;11.00;54.10;;;;;;4992627;28;20109;-71
2021/01/25 10:16:50;;;;;;;13.30;3.78;;;11.10;53.00;;;;;;4993692;28;20022;-69
2021/01/25 10:19:16;;;;;;;15.32;4.88;;;10.90;54.60;;;;;;4994319;28;20372;-69
2021/01/25 10:21:42;;;;;;;12.57;3.70;;;11.00;53.60;;;;;;4993027;28;20084;-69
2021/01/25 10:24:09;;;;;;;21.58;5.20;;;10.70;54.90;;;;;;4993109;28;20022;-69
2021/01/25 10:26:35;;;;;;;11.30;3.53;;;10.80;54.90;;;;;;4990051;28;20386;-69
2021/01/25 10:29:02;;;;;;;18.10;3.90;;;10.80;54.50;;;;;;4993171;28;20026;-70
2021/01/25 10:31:28;;;;;;;15.02;3.72;;;10.70;55.10;;;;;;4994173;28;20403;-69
2021/01/25 10:33:55;;;;;;;17.98;4.90;;;10.60;55.60;;;;;;4993114;28;20034;-69
2021/01/25 10:36:21;;;;;;;16.50;5.15;;;10.70;55.70;;;;;;4995042;28;20027;-69
2021/01/25 10:38:48;;;;;;;15.10;3.60;;;10.60;55.90;;;;;;4993116;28;20026;-69
2021/01/25 10:41:15;;;;;;;16.45;3.97;;;10.70;54.80;;;;;;4978848;28;20076;-70
2021/01/25 10:43:43;;;;;;;13.45;4.45;;;10.80;54.10;;;;;;4991904;28;20061;-68
2021/01/25 10:46:10;;;;;;;16.75;4.20;;;10.90;53.40;;;;;;4994057;28;20088;-70
2021/01/25 10:48:54;;;;;;;17.92;4.70;;;10.80;53.80;;;;;;4992713;28;20026;-70
2021/01/25 10:51:21;;;;;;;9.80;3.97;;;10.90;53.30;;;;;;4991043;28;20372;-70
2021/01/25 10:53:47;;;;;;;13.32;3.28;;;10.90;52.80;;;;;;4993449;28;20073;-70
2021/01/25 10:56:14;;;;;;;14.43;3.95;;;10.90;52.70;;;;;;4992645;28;20048;-70
2021/01/25 10:58:40;;;;;;;11.77;3.60;;;10.80;53.20;;;;;;4989169;28;20034;-69
2021/01/25 11:01:07;;;;;;;9.18;3.08;;;10.60;53.90;;;;;;4992923;28;20056;-69
2021/01/25 11:03:36;;;;;;;20.00;5.70;;;10.70;53.60;;;;;;4992070;28;20153;-70
2021/01/25 11:06:03;;;;;;;13.05;4.15;;;11.00;53.00;;;;;;4991253;28;20037;-70
2021/01/25 11:08:30;;;;;;;22.25;5.47;;;10.80;53.80;;;;;;4993683;28;20034;-69
2021/01/25 11:10:56;;;;;;;17.13;4.88;;;10.70;54.20;;;;;;4992479;28;20507;-70
2021/01/25 11:13:22;;;;;;;21.85;5.30;;;10.80;53.90;;;;;;4991906;28;20039;-70
2021/01/25 11:15:49;;;;;;;14.50;3.35;;;10.70;54.30;;;;;;4991707;28;20471;-70
2021/01/25 11:18:15;;;;;;;14.80;4.30;;;10.70;54.40;;;;;;4991793;28;20026;-70
2021/01/25 11:20:42;;;;;;;19.35;4.65;;;10.60;55.20;;;;;;4994462;28;20452;-70
2021/01/25 11:23:08;;;;;;;17.15;4.63;;;10.50;55.40;;;;;;4992912;28;20062;-70
2021/01/25 11:25:34;;;;;;;14.45;4.97;;;10.30;55.50;;;;;;4992416;28;20114;-70
2021/01/25 11:28:01;;;;;;;17.70;4.78;;;10.70;54.80;;;;;;4993020;28;20026;-69
2021/01/25 11:30:27;;;;;;;20.48;3.72;;;10.80;54.40;;;;;;4992636;28;20038;-69
2021/01/25 11:32:54;;;;;;;15.05;3.70;;;10.90;54.30;;;;;;4992288;28;20030;-69
2021/01/25 11:35:20;;;;;;;12.13;3.47;;;10.80;54.90;;;;;;4993891;28;20502;-70
2021/01/25 11:37:46;;;;;;;16.85;4.15;;;10.70;54.30;;;;;;4992211;28;20058;-70
2021/01/25 11:40:13;;;;;;;14.27;5.15;;;10.80;54.30;;;;;;4993192;28;20105;-71
2021/01/25 11:42:40;;;;;;;17.08;3.72;;;10.70;54.40;;;;;;4991211;28;20105;-70
2021/01/25 11:45:07;;;;;;;14.25;4.95;;;10.80;54.00;;;;;;4991763;28;20031;-69
2021/01/25 11:47:33;;;;;;;9.95;4.05;;;10.60;54.90;;;;;;4992473;28;20045;-68
2021/01/25 11:50:00;;;;;;;14.18;3.33;;;10.80;54.40;;;;;;4992934;28;20053;-69
2021/01/25 11:52:26;;;;;;;16.20;3.65;;;10.50;55.30;;;;;;4994832;28;20061;-69
2021/01/25 11:54:52;;;;;;;9.88;3.47;;;10.60;55.40;;;;;;4996265;28;20367;-69
2021/01/25 11:57:19;;;;;;;13.10;4.00;;;10.70;55.50;;;;;;4996293;28;20038;-69
2021/01/25 11:59:46;;;;;;;15.38;3.78;;;10.70;56.00;;;;;;4994977;28;20037;-68
2021/01/25 12:02:12;;;;;;;18.25;3.70;;;10.80;54.40;;;;;;4995420;28;20372;-68
2021/01/25 12:04:39;;;;;;;13.80;3.88;;;10.60;55.50;;;;;;4995456;28;20022;-70
2021/01/25 12:07:06;;;;;;;14.38;4.10;;;10.50;56.30;;;;;;4995512;28;20030;-70
2021/01/25 12:09:32;;;;;;;13.38;3.90;;;10.30;57.00;;;;;;4996038;28;20034;-69
2021/01/25 12:12:00;;;;;;;16.45;3.72;;;10.30;57.10;;;;;;4993510;28;20030;-71
2021/01/25 12:14:26;;;;;;;15.23;4.53;;;10.30;57.00;;;;;;4995605;28;20336;-71
2021/01/25 12:16:54;;;;;;;12.40;3.28;;;10.60;56.40;;;;;;4996842;28;20034;-70
2021/01/25 12:19:21;;;;;;;22.70;4.78;;;10.70;55.20;;;;;;4994708;28;20030;-70
2021/01/25 12:21:47;;;;;;;14.32;3.67;;;10.60;55.20;;;;;;4995737;28;20034;-71
2021/01/25 12:24:14;;;;;;;21.45;3.45;;;10.50;55.60;;;;;;4995468;28;20495;-69
2021/01/25 12:26:40;;;;;;;13.95;3.80;;;10.70;54.90;;;;;;4992174;28;20041;-70
2021/01/25 12:29:07;;;;;;;11.20;3.53;;;10.70;54.70;;;;;;4993951;28;20037;-70
2021/01/25 12:31:33;;;;;;;15.35;4.15;;;10.70;54.60;;;;;;4994511;28;20041;-69
2021/01/25 12:34:00;;;;;;;11.77;4.20;;;10.90;53.10;;;;;;4995761;28;20459;-70
2021/01/25 12:36:27;;;;;;;16.13;3.30;;;10.80;53.10;;;;;;4995950;28;20045;-71
2021/01/25 12:38:56;;;;;;;14.15;2.95;;;11.00;51.80;;;;;;4996112;28;20105;-69
2021/01/25 12:41:22;;;;;;;21.95;4.07;;;10.80;52.80;;;;;;4992627;28;20026;-70
2021/01/25 12:43:49;;;;;;;9.68;3.85;;;10.70;52.90;;;;;;4993162;28;20037;-70